• Join FlightAware (Why Join?)
  • Login
  • US Flag 
11:34AM EDT


 

Airport Tracker/Info


-or-


 

Live Flight TrackerFlight Track Log ✈ KCE2 ✈ 14-May-2013 ✈ CYSJ - CYYC

Flight Track Log - Related Links

Times and Time Zones

All times are in EDT time to prevent confusion due to time zone crossing. See the KCE2 flight status page for this flight to view local times or setup timezone preferences in your user account.

Time Position Orientation Groundspeed Altitude Reporting Facility
EDT Latitude Longitude Course Direction KTS MPH feet Rate Location/Type
03:16PM 45.2260 -66.2110 297° West 320 368 13,100  Level FlightAware
03:18PM 45.2790 -66.3530 298° West 342 394 17,600 2,880 Climbing FlightAware
03:19PM 45.3350 -66.5020 298° West 386 444 20,200 2,280 Climbing FlightAware
03:20PM 45.3990 -66.6760 298° West 411 473 23,200 2,280 Climbing FlightAware
03:21PM 45.4620 -66.8470 298° West 425 489 25,800 2,280 Climbing FlightAware
03:22PM 45.5320 -67.0360 298° West 426 490 28,800 2,040 Climbing FlightAware
03:24PM 45.5960 -67.2130 297° West 438 504 30,800 1,320 Climbing FlightAware
03:25PM 45.6630 -67.3980 297° West 465 535 32,000 480 Climbing FlightAware
03:26PM 45.7350 -67.5990 297° West 500 575 32,000  Level FlightAware
03:27PM 45.8240 -67.8490 297° West 501 577 32,000  Level FlightAware
03:28PM 45.8710 -67.9820 297° West 501 577 32,000  Level FlightAware
03:29PM 45.9240 -68.1360 296° West 501 577 32,000  Level FlightAware
03:30PM 45.9580 -68.2380 296° West 501 577 32,000  Level FlightAware
03:30PM 45.9930 -68.3400 296° West 501 577 32,000  Level FlightAware
03:31PM 46.0510 -68.4990 298° West 490 564 32,000  Level FlightAware
03:32PM 46.0960 -68.6290 297° West 486 559 32,000 540 Level FlightAware
03:32PM 46.1360 -68.7450 296° West 482 555 32,800 1,020 Climbing FlightAware
03:33PM 46.1880 -68.8980 296° West 473 544 33,700 1,980 Climbing FlightAware
03:34PM 46.2310 -69.0240 296° West 449 517 36,100 2,040 Climbing FlightAware
03:35PM 46.2670 -69.1320 296° West 457 526 36,600 780 Climbing FlightAware
03:35PM 46.3040 -69.2410 296° West 458 527 37,200 960 Climbing FlightAware
03:36PM 46.3500 -69.3780 296° West 452 520 38,100 1,080 Climbing FlightAware
03:37PM 46.3860 -69.4870 296° West 447 514 38,900 1,020 Climbing FlightAware
03:38PM 46.4210 -69.5910 296° West 443 510 39,500 720 Climbing FlightAware
03:38PM 46.4520 -69.6860 295° West 445 512 39,800 660 Climbing FlightAware
03:39PM 46.4920 -69.8060 296° West 441 507 40,400 720 Climbing FlightAware
03:40PM 46.5270 -69.9130 295° West 440 506 40,900 540 Climbing FlightAware
03:40PM 46.5570 -70.0070 295° West 442 509 41,100 660 Climbing FlightAware
03:41PM 46.5960 -70.1240 296° West 432 497 41,800 600 Climbing FlightAware
03:42PM 46.6300 -70.2290 295° West 434 499 42,000 360 Climbing FlightAware
03:42PM 46.6630 -70.3340 295° West 431 496 42,300 300 Climbing FlightAware
03:43PM 46.7020 -70.4530 296° West 432 497 42,500 300 Climbing FlightAware
03:44PM 46.7350 -70.5560 295° West 431 496 42,800 300 Climbing FlightAware
03:44PM 46.7730 -70.6750 295° West 430 495 43,000 120 Climbing FlightAware
03:45PM 46.8050 -70.7780 294° West 435 501 43,000  Level FlightAware
03:46PM 46.8390 -70.8860 295° West 439 505 43,000  Level FlightAware
03:47PM 46.8800 -71.0140 295° West 443 510 43,000  Level FlightAware
03:48PM 46.9330 -71.1840 295° West 450 518 43,000  Level FlightAware
03:48PM 46.9720 -71.3100 294° West 452 520 43,000  Level FlightAware
03:49PM 47.0070 -71.4250 294° West 454 522 43,000  Level FlightAware
03:50PM 47.0450 -71.5460 295° West 456 525 43,000  Level FlightAware
03:50PM 47.0800 -71.6600 294° West 456 525 43,000  Level FlightAware
03:51PM 47.1130 -71.7710 294° West 455 524 43,000  Level FlightAware
03:52PM 47.1480 -71.8830 295° West 455 524 43,000  Level FlightAware
03:52PM 47.1820 -71.9970 294° West 456 525 43,000  Level FlightAware
03:53PM 47.2200 -72.1230 294° West 457 526 43,000  Level FlightAware
03:54PM 47.2530 -72.2340 294° West 458 527 43,000  Level FlightAware
03:55PM 47.2920 -72.3650 294° West 458 527 43,000  Level FlightAware
03:55PM 47.3260 -72.4780 294° West 456 525 43,000  Level FlightAware
03:56PM 47.3590 -72.5900 294° West 454 522 43,000  Level FlightAware
03:57PM 47.3920 -72.7020 294° West 453 521 43,000  Level FlightAware
03:57PM 47.4360 -72.8390 295° West 453 521 43,000  Level FlightAware
03:58PM 47.4750 -72.9480 298° West 453 521 43,000  Level FlightAware
03:59PM 47.5110 -73.0520 297° West 453 521 43,000  Level FlightAware
03:59PM 47.5520 -73.1670 298° West 451 519 43,000  Level FlightAware
04:00PM 47.5950 -73.2910 297° West 449 517 43,000  Level FlightAware
04:01PM 47.6330 -73.4000 297° West 448 516 43,000  Level FlightAware
04:01PM 47.6640 -73.4870 298° West 448 516 43,000  Level FlightAware
04:02PM 47.7130 -73.6290 297° West 447 514 43,000  Level FlightAware
04:03PM 47.7570 -73.7540 298° West 449 517 43,000  Level FlightAware
04:04PM 47.7920 -73.8570 297° West 449 517 43,000  Level FlightAware
04:04PM 47.8220 -73.9440 297° West 449 517 43,000  Level FlightAware
04:05PM 47.8620 -74.0610 297° West 449 517 43,000  Level FlightAware
04:06PM 47.8940 -74.1550 297° West 449 517 43,000  Level FlightAware
04:06PM 47.9260 -74.2490 297° West 449 517 43,000  Level FlightAware
04:07PM 47.9580 -74.3430 297° West 449 517 43,000  Level FlightAware
04:08PM 47.9900 -74.4370 297° West 449 517 43,000  Level FlightAware
04:09PM 48.0300 -74.5540 297° West 449 517 43,000  Level FlightAware
04:09PM 48.0620 -74.6480 297° West 449 517 43,000  Level FlightAware
04:10PM 48.0940 -74.7430 297° West 449 517 43,000  Level FlightAware
04:11PM 48.1260 -74.8370 297° West 449 517 43,000  Level FlightAware
04:11PM 48.1580 -74.9310 297° West 449 517 43,000  Level FlightAware
04:12PM 48.1980 -75.0490 297° West 449 517 43,000  Level FlightAware
04:13PM 48.2310 -75.1440 298° West 449 517 43,000  Level FlightAware
04:13PM 48.2630 -75.2380 297° West 449 517 43,000  Level FlightAware
04:14PM 48.3667 -75.5833 297° West 440 506 43,000  Level Montreal Center
04:15PM 48.4167 -75.7333 297° West 440 506 43,000  Level Montreal Center
04:16PM 48.4667 -75.8833 297° West 440 506 43,000  Level Montreal Center
04:17PM 48.5167 -76.0667 292° West 440 506 43,000  Level Montreal Center
04:18PM 48.5667 -76.2500 292° West 440 506 43,000  Level Montreal Center
04:19PM 48.6167 -76.4167 294° West 440 506 43,000  Level Montreal Center
04:20PM 48.6667 -76.5833 294° West 440 506 43,000  Level Montreal Center
04:21PM 48.7333 -76.7500 301° West 430 495 43,000  Level Montreal Center
04:22PM 48.7833 -76.9167 295° West 440 506 43,000  Level Montreal Center
04:23PM 48.8333 -77.0667 297° West 430 495 43,000  Level Montreal Center
04:24PM 48.8833 -77.2500 293° West 430 495 43,000  Level Montreal Center
04:25PM 48.9167 -77.4000 289° West 430 495 43,000  Level Montreal Center
04:26PM 48.9667 -77.5833 293° West 430 495 43,000  Level Montreal Center
04:27PM 49.0167 -77.7333 297° West 440 506 43,000  Level Montreal Center
04:28PM 49.0667 -77.9167 293° West 430 495 43,000  Level Montreal Center
04:29PM 49.1167 -78.0667 297° West 410 472 43,000  Level Montreal Center
04:30PM 49.1667 -78.2500 293° West 450 518 43,000  Level Montreal Center
04:31PM 49.2167 -78.4167 295° West 430 495 43,000  Level Montreal Center
04:32PM 49.2500 -78.5667 289° West 420 483 43,000  Level Montreal Center
04:33PM 49.3000 -78.7500 293° West 420 483 43,000  Level Montreal Center
04:34PM 49.3500 -78.9167 295° West 410 472 43,000  Level Montreal Center
04:35PM 49.4000 -79.0667 297° West 430 495 43,000  Level Montreal Center
04:36PM 49.4333 -79.2167 289° West 420 483 43,000  Level Montreal Center
04:37PM 49.4833 -79.4167 291° West 420 483 43,000  Level Montreal Center
04:38PM 49.5333 -79.5667 297° West 410 472 43,000  Level Montreal Center
04:39PM 49.5833 -79.7333 295° West 410 472 43,000  Level Montreal Center
04:40PM 49.6167 -79.9167 286° West 420 483 43,000  Level Montreal Center
04:41PM 49.6667 -80.0667 297° West 420 483 43,000  Level Montreal Center
04:42PM 49.7167 -80.2333 295° West 420 483 43,000  Level Montreal Center
04:43PM 49.7333 -80.4167 278° West 420 483 43,000  Level Montreal Center
04:44PM 49.7833 -80.5833 295° West 420 483 43,000  Level Montreal Center
04:45PM 49.8167 -80.7667 286° West 420 483 43,000  Level Montreal Center
04:46PM 49.8500 -80.9167 289° West 420 483 43,000  Level Montreal Center
04:47PM 49.9000 -81.1167 291° West 420 483 43,000  Level Montreal Center
04:48PM 49.9167 -81.2667 280° West 430 495 43,000  Level Montreal Center
04:49PM 49.9667 -81.4667 291° West 420 483 43,000  Level Montreal Center
04:50PM 50.0000 -81.6500 286° West 420 483 43,000  Level Montreal Center
04:51PM 50.0333 -81.8167 287° West 420 483 43,000  Level Montreal Center
04:52PM 50.0667 -81.9667 289° West 410 472 43,000  Level Montreal Center
04:53PM 50.0667 -81.9833 270° West 420 483 43,000  Level Winnipeg Center
04:54PM 50.1000 -82.1833 285° West 420 483 43,000  Level Winnipeg Center
04:55PM 50.1333 -82.3333 289° West 420 483 43,000  Level Winnipeg Center
04:56PM 50.1667 -82.5333 285° West 420 483 43,000  Level Winnipeg Center
04:56PM 50.1667 -82.5500 270° West 420 483 43,000  Level Edmonton Center
04:57PM 50.1833 -82.7333 278° West 420 483 43,000  Level Edmonton Center
04:58PM 50.2500 -82.8833 305° West 420 483 43,000  Level Winnipeg Center
04:58PM 50.2667 -83.0333 280° West 420 483 43,000  Level Montreal Center
04:59PM 50.3000 -83.1833 289° West 420 483 43,000  Level Montreal Center
05:00PM 50.3167 -83.3833 278° West 410 472 43,000  Level Montreal Center
05:01PM 50.3667 -83.5500 295° West 410 472 43,000  Level Montreal Center
05:02PM 50.3833 -83.7333 278° West 410 472 43,000  Level Montreal Center
05:03PM 50.4167 -83.9000 287° West 410 472 43,000  Level Montreal Center
05:04PM 50.4500 -84.0833 286° West 410 472 43,000  Level Montreal Center
05:05PM 50.4833 -84.2500 288° West 410 472 43,000  Level Montreal Center
05:06PM 50.5000 -84.4167 279° West 410 472 43,000  Level Montreal Center
05:07PM 50.5000 -84.4667 270° West 410 472 43,000  Level Edmonton Center
05:08PM 50.5333 -84.6333 288° West 410 472 43,000  Level Edmonton Center
05:09PM 50.5667 -84.8167 286° West 420 483 43,000  Level Edmonton Center
05:10PM 50.6000 -84.9500 292° West 420 483 43,000  Level Winnipeg Center
05:10PM 50.6333 -85.1000 289° West 410 472 43,000  Level Montreal Center
05:11PM 50.6500 -85.3000 278° West 410 472 43,000  Level Montreal Center
05:12PM 50.6500 -85.3500 270° West 420 483 43,000  Level Edmonton Center
05:13PM 50.7000 -85.5000 298° West 420 483 43,000  Level Winnipeg Center
05:13PM 50.6833 -85.5000 180° South 420 483 43,000  Level Edmonton Center
05:14PM 50.7000 -85.7167 277° West 420 483 43,000  Level Edmonton Center
05:15PM 50.7333 -85.8667 289° West 420 483 43,000  Level Edmonton Center
05:16PM 50.7667 -86.0667 285° West 420 483 43,000  Level Edmonton Center
05:17PM 50.8167 -86.2167 298° West 420 483 43,000  Level Winnipeg Center
05:17PM 50.8000 -86.2167 180° South 420 483 43,000  Level Edmonton Center
05:18PM 50.8333 -86.4000 286° West 420 483 43,000  Level Winnipeg Center
05:19PM 50.8667 -86.5667 288° West 420 483 43,000  Level Winnipeg Center
05:20PM 50.9000 -86.7500 286° West 420 483 43,000  Level Winnipeg Center
05:21PM 50.9167 -86.9167 279° West 420 483 43,000  Level Winnipeg Center
05:22PM 50.9500 -87.1167 285° West 420 483 43,000  Level Winnipeg Center
05:23PM 50.9833 -87.2667 289° West 420 483 43,000  Level Winnipeg Center
05:23PM 50.9667 -87.3000 232° Southwest 420 483 43,000  Level Edmonton Center
05:24PM 50.9833 -87.4833 278° West 420 483 43,000  Level Edmonton Center
05:25PM 51.0167 -87.6333 290° West 420 483 43,000  Level Winnipeg Center
05:26PM 51.0333 -87.8167 278° West 420 483 43,000  Level Winnipeg Center
05:27PM 51.0667 -88.0000 286° West 420 483 43,000  Level Winnipeg Center
05:28PM 51.1000 -88.1833 286° West 420 483 43,000  Level Winnipeg Center
05:29PM 51.1333 -88.3667 286° West 400 460 43,000  Level Winnipeg Center
05:30PM 51.1500 -88.5500 278° West 410 472 43,000  Level Winnipeg Center
05:31PM 51.1833 -88.7500 285° West 430 495 43,000  Level Winnipeg Center
05:32PM 51.1833 -88.9167 270° West 420 483 43,000  Level Winnipeg Center
05:33PM 51.2167 -89.1000 286° West 410 472 43,000  Level Winnipeg Center
05:34PM 51.2500 -89.2833 286° West 410 472 43,000  Level Winnipeg Center
05:35PM 51.2500 -89.4333 270° West 420 483 43,000  Level Winnipeg Center
05:36PM 51.2833 -89.6500 284° West 410 472 43,000  Level Winnipeg Center
05:37PM 51.3167 -89.8000 290° West 420 483 43,000  Level Winnipeg Center
05:38PM 51.3333 -90.0167 277° West 420 483 43,000  Level Winnipeg Center
05:39PM 51.3500 -90.2000 278° West 430 495 43,000  Level Winnipeg Center
05:40PM 51.3833 -90.3833 286° West 430 495 43,000  Level Winnipeg Center
05:41PM 51.4000 -90.5667 278° West 430 495 43,000  Level Winnipeg Center
05:42PM 51.4167 -90.7667 278° West 430 495 43,000  Level Winnipeg Center
05:43PM 51.4500 -90.9500 286° West 430 495 43,000  Level Winnipeg Center
05:44PM 51.4500 -91.1333 270° West 430 495 43,000  Level Winnipeg Center
05:45PM 51.4833 -91.3500 284° West 430 495 43,000  Level Winnipeg Center
05:46PM 51.5000 -91.5000 280° West 430 495 43,000  Level Winnipeg Center
05:47PM 51.5167 -91.7167 277° West 430 495 43,000  Level Winnipeg Center
05:48PM 51.5333 -91.9000 278° West 420 483 43,000  Level Winnipeg Center
05:49PM 51.5667 -92.0833 286° West 430 495 43,000  Level Winnipeg Center
05:50PM 51.5667 -92.2833 270° West 430 495 43,000  Level Winnipeg Center
05:51PM 51.6000 -92.4667 286° West 430 495 43,000  Level Winnipeg Center
05:52PM 51.6167 -92.6500 278° West 430 495 43,000  Level Winnipeg Center
05:53PM 51.6333 -92.8333 278° West 430 495 43,000  Level Winnipeg Center
05:54PM 51.6500 -93.0500 277° West 430 495 43,000  Level Winnipeg Center
05:55PM 51.6833 -93.2167 288° West 430 495 43,000  Level Winnipeg Center
05:56PM 51.7000 -93.4333 277° West 430 495 43,000  Level Winnipeg Center
05:57PM 51.7167 -93.6167 278° West 430 495 43,000  Level Winnipeg Center
05:58PM 51.7500 -93.8000 286° West 430 495 43,000  Level Winnipeg Center
05:59PM 51.7667 -93.9833 278° West 430 495 43,000  Level Winnipeg Center
06:00PM 51.7833 -94.1833 278° West 430 495 43,000  Level Winnipeg Center
06:01PM 51.8000 -94.3667 278° West 430 495 43,000  Level Winnipeg Center
06:02PM 51.8333 -94.5500 286° West 430 495 43,000  Level Winnipeg Center
06:03PM 51.8500 -94.7667 277° West 430 495 43,000  Level Winnipeg Center
06:04PM 51.8500 -94.9333 270° West 430 495 43,000  Level Winnipeg Center
06:05PM 51.8667 -95.1500 277° West 420 483 43,000  Level Winnipeg Center
06:06PM 51.9000 -95.3167 288° West 420 483 43,000  Level Winnipeg Center
06:07PM 51.9167 -95.5333 277° West 420 483 43,000  Level Winnipeg Center
06:08PM 51.9333 -95.6833 280° West 420 483 43,000  Level Winnipeg Center
06:09PM 51.9500 -95.9000 277° West 420 483 43,000  Level Winnipeg Center
06:14PM 52.0550 -96.9840 277° West 429 494 43,000  Level FlightAware
06:15PM 52.0630 -97.0930 277° West 429 494 43,000  Level FlightAware
06:16PM 52.0710 -97.2020 277° West 429 494 43,000  Level FlightAware
06:17PM 52.0820 -97.3380 278° West 429 494 43,000  Level FlightAware
06:17PM 52.0900 -97.4470 277° West 429 494 43,000  Level FlightAware
06:18PM 52.0980 -97.5560 277° West 429 494 43,000  Level FlightAware
06:19PM 52.1060 -97.6650 277° West 429 494 43,000  Level FlightAware
06:19PM 52.1140 -97.7740 277° West 429 494 43,000  Level FlightAware
06:20PM 52.1230 -97.8830 278° West 429 494 43,000  Level FlightAware
06:21PM 52.1330 -98.0190 277° West 429 494 43,000  Level FlightAware
06:21PM 52.1570 -98.3340 277° West 426 490 43,000  Level FlightAware
06:22PM 52.1640 -98.4480 276° West 426 490 43,000  Level FlightAware
06:23PM 52.1710 -98.5570 276° West 426 490 43,000  Level FlightAware
06:24PM 52.1800 -98.6930 276° West 426 490 43,000  Level FlightAware
06:24PM 52.1870 -98.8010 276° West 426 490 43,000  Level FlightAware
06:25PM 52.1940 -98.9100 276° West 426 490 43,000  Level FlightAware
06:26PM 52.2010 -99.0190 276° West 426 490 43,000  Level FlightAware
06:26PM 52.2080 -99.1270 276° West 426 490 43,000  Level FlightAware
06:27PM 52.2170 -99.2630 276° West 426 490 43,000  Level FlightAware
06:28PM 52.2330 -99.5160 276° West 432 497 43,000  Level FlightAware
06:28PM 52.2390 -99.6430 274° West 432 497 43,000  Level FlightAware
06:29PM 52.2500 -99.8200 276° West 433 498 43,000  Level FlightAware
06:30PM 52.2560 -99.9280 275° West 433 498 43,000  Level FlightAware
06:31PM 52.2630 -100.0660 275° West 433 498 43,000  Level FlightAware
06:31PM 52.2690 -100.1770 275° West 433 498 43,000  Level FlightAware
06:32PM 52.2750 -100.2880 275° West 433 498 43,000  Level FlightAware
06:33PM 52.2810 -100.3990 275° West 433 498 43,000  Level FlightAware
06:33PM 52.2870 -100.5100 275° West 433 498 43,000  Level FlightAware
06:34PM 52.2930 -100.6210 275° West 433 498 43,000  Level FlightAware
06:35PM 52.3000 -100.7600 275° West 433 498 43,000  Level FlightAware
06:35PM 52.3060 -100.8710 275° West 433 498 43,000  Level FlightAware
06:36PM 52.3120 -100.9820 275° West 433 498 43,000  Level FlightAware
06:37PM 52.3180 -101.0930 275° West 433 498 43,000  Level FlightAware
06:38PM 52.3260 -101.2310 275° West 433 498 43,000  Level FlightAware
06:38PM 52.3320 -101.3420 275° West 433 498 43,000  Level FlightAware
06:39PM 52.3370 -101.4530 274° West 433 498 43,000  Level FlightAware
06:40PM 52.3000 -101.9167 274° West 440 506 43,000  Level Winnipeg Center
06:40PM 52.3000 -101.9333 270° West 430 495 43,000  Level Edmonton Center
06:41PM 52.2833 -102.1500 263° West 430 495 43,000  Level Edmonton Center
06:42PM 52.2833 -102.3000 270° West 440 506 43,000  Level Winnipeg Center
06:43PM 52.3000 -102.5000 278° West 440 506 43,000  Level Winnipeg Center
06:44PM 52.2833 -102.7167 263° West 430 495 43,000  Level Winnipeg Center
06:45PM 52.2833 -102.9167 270° West 440 506 43,000  Level Winnipeg Center
06:46PM 52.2833 -103.1000 270° West 440 506 43,000  Level Winnipeg Center
06:47PM 52.2833 -103.3000 270° West 430 495 43,000  Level Winnipeg Center
06:48PM 52.2833 -103.4833 270° West 430 495 43,000  Level Winnipeg Center
06:49PM 52.2833 -103.7000 270° West 430 495 43,000  Level Winnipeg Center
06:50PM 52.2667 -103.8667 261° West 430 495 43,000  Level Winnipeg Center
06:50PM 52.2667 -103.8833 270° West 420 483 43,000  Level Edmonton Center
06:51PM 52.2500 -104.1167 263° West 420 483 43,000  Level Edmonton Center
06:52PM 52.2667 -104.2833 279° West 430 495 43,000  Level Winnipeg Center
06:53PM 52.2500 -104.4667 262° West 430 495 43,000  Level Winnipeg Center
06:54PM 52.2333 -104.6500 262° West 430 495 43,000  Level Winnipeg Center
06:55PM 52.2500 -104.8500 278° West 430 495 43,000  Level Winnipeg Center
06:56PM 52.2333 -105.0667 263° West 430 495 43,000  Level Winnipeg Center
06:57PM 52.2333 -105.2667 270° West 430 495 43,000  Level Winnipeg Center
06:58PM 52.2167 -105.4500 262° West 430 495 43,000  Level Winnipeg Center
06:59PM 52.2000 -105.6333 262° West 430 495 43,000  Level Winnipeg Center
07:00PM 52.2000 -105.8333 270° West 430 495 43,000  Level Winnipeg Center
07:01PM 52.2000 -106.0167 270° West 430 495 43,000  Level Winnipeg Center
07:02PM 52.2000 -106.2167 270° West 430 495 43,000  Level Winnipeg Center
07:03PM 52.1833 -106.4333 263° West 430 495 43,000  Level Winnipeg Center
07:04PM 52.1667 -106.5833 260° West 430 495 43,000  Level Winnipeg Center
07:05PM 52.1667 -106.8167 270° West 430 495 43,000  Level Winnipeg Center
07:06PM 52.1333 -107.0000 254° West 430 495 43,000  Level Winnipeg Center
07:07PM 52.1167 -107.1833 262° West 430 495 43,000  Level Winnipeg Center
07:08PM 52.1000 -107.4000 263° West 430 495 43,000  Level Winnipeg Center
07:08PM 52.0667 -107.4167 197° South 420 483 43,000  Level Edmonton Center
07:09PM 52.0500 -107.5667 260° West 420 483 43,000  Level Edmonton Center
07:10PM 52.0333 -107.8000 263° West 420 483 43,000  Level Edmonton Center
07:11PM 52.0167 -107.9500 260° West 430 495 43,000  Level Winnipeg Center
07:12PM 52.0000 -108.1500 262° West 430 495 43,000  Level Winnipeg Center
07:13PM 51.9667 -108.3333 254° West 430 495 43,000  Level Winnipeg Center
07:14PM 51.9333 -108.5167 254° West 430 495 43,000  Level Winnipeg Center
07:15PM 51.9167 -108.7333 263° West 430 495 43,000  Level Winnipeg Center
07:16PM 51.9000 -108.8833 260° West 430 495 43,000  Level Winnipeg Center
07:17PM 51.8667 -109.0667 254° West 430 495 43,000  Level Winnipeg Center
07:17PM 51.8500 -109.1000 231° Southwest 420 483 43,000  Level Edmonton Center
07:18PM 51.8333 -109.2833 262° West 420 483 43,000  Level Edmonton Center
07:24PM 51.7050 -110.3240 262° West 379 436 43,000  Level FlightAware
07:24PM 51.6930 -110.4060 257° West 376 433 43,000  Level FlightAware
07:25PM 51.6770 -110.5180 257° West 375 432 43,000  Level FlightAware
07:26PM 51.6480 -110.7110 256° West 374 430 43,000  Level FlightAware
07:27PM 51.6240 -110.8650 256° West 381 438 43,000  Level FlightAware
07:28PM 51.5970 -111.0400 256° West 384 442 43,000  Level FlightAware
07:29PM 51.5840 -111.1350 258° West 384 442 43,000 -1,380 Level FlightAware
07:30PM 51.5610 -111.2670 254° West 374 430 41,200 -1,980 Descending FlightAware
07:30PM 51.5420 -111.3860 256° West 368 423 40,200 -1,680 Descending FlightAware
07:31PM 51.5110 -111.5780 256° West 369 425 38,000 -1,920 Descending FlightAware
07:32PM 51.4910 -111.7010 255° West 390 449 36,600 -1,980 Descending FlightAware
07:33PM 51.4730 -111.8170 256° West 405 466 35,200 -2,040 Descending FlightAware
07:34PM 51.4440 -111.9900 255° West 401 461 33,200 -1,920 Descending FlightAware
07:35PM 51.4120 -112.1870 255° West 418 481 31,100 -2,100 Descending FlightAware
07:37PM 51.3550 -112.5240 255° West 437 503 26,900 -2,340 Descending FlightAware
07:37PM 51.3370 -112.6290 255° West 429 494 25,500 -2,340 Descending FlightAware
07:38PM 51.3100 -112.7830 254° West 417 480 23,600 -2,220 Descending FlightAware
07:39PM 51.2830 -112.9430 255° West 403 464 21,700 -2,160 Descending FlightAware
07:40PM 51.2630 -113.0590 255° West 397 457 20,200 -2,220 Descending FlightAware
07:41PM 51.2430 -113.1700 254° West 395 455 18,800 -2,100 Descending FlightAware
07:42PM 51.2090 -113.3640 254° West 372 428 16,400 -1,920 Descending FlightAware
07:43PM 51.1790 -113.5310 254° West 315 362 14,400 -1,740 Descending FlightAware
07:43PM 51.1640 -113.6100 253° West 296 341 13,400 -1,560 Descending FlightAware
07:44PM 51.1450 -113.7160 254° West 259 298 12,100 -1,440 Descending FlightAware
07:45PM 51.1520 -113.7610 284° West 248 285 11,500 -1,380 Descending FlightAware
07:45PM 51.1640 -113.7750 324° Northwest 258 297 11,200 -1,680 Descending FlightAware
07:46PM 51.2080 -113.8000 340° North 274 315 10,100 -1,980 Descending FlightAware
07:46PM 51.2470 -113.8220 341° North 263 303 9,100 -2,040 Descending FlightAware
07:47PM 51.2960 -113.8510 340° North 258 297 7,600 -1,620 Descending FlightAware
07:48PM 51.3590 -113.9020 333° Northwest 243 280 6,300 -1,320 Descending FlightAware
07:48PM 51.3630 -113.9180 292° West 236 272 6,100 -600 Descending FlightAware
07:49PM 51.3420 -113.9950 246° West 185 213 5,600 -480 Descending FlightAware
07:49PM 51.3220 -114.0110 207° Southwest 166 191 5,500 -120 Descending FlightAware
07:50PM 51.2870 -114.0230 192° South 180 207 5,500  Level FlightAware
07:51PM 51.2660 -114.0220 178° South 176 203 5,500  Level FlightAware
07:51PM 51.2420 -114.0210 179° South 165 190 5,500 -120 Level FlightAware
07:52PM 51.2210 -114.0210 180° South 175 201 5,400 -480 Descending FlightAware
07:52PM 51.2020 -114.0220 182° South 175 201 5,100 -840 Descending FlightAware
07:52PM 51.1820 -114.0210 178° South 166 191 4,700 -960 Descending FlightAware
07:53PM 51.1630 -114.0210 180° South 149 171 4,300 -840 Descending FlightAware
07:53PM 51.1350 -114.0210 180° South 132 152 3,800 -780 Descending FlightAware